LESO/EAS METAR and TAF weather

Enter ICAO airport designator
Station Type Date Time Source
LESO METAR 2021/09/16 11:30 UTC NOAA

LESO 161130Z VRB02KT 9999 SCT030 BKN040 21/18 Q1020


Station Type Date Time Source
LESO Decoded METAR 2021/09/16 11:30 UTC NOAA

San Sebastian / Fuenterrabia, Spain (LESO) 43-21N 001-48W 8M
Sep 16, 2021 - 07:30 AM EDT / 2021.09.16 1130 UTC
Wind: Variable at 2 MPH (2 KT):0
Visibility: greater than 7 mile(s):0
Sky conditions: mostly cloudy
Temperature: 69 F (21 C)
Dew Point: 64 F (18 C)
Relative Humidity: 82%
Pressure (altimeter): 30.12 in. Hg (1020 hPa)
ob: LESO 161130Z VRB02KT 9999 SCT030 BKN040 21/18 Q1020
cycle: 11

Station Type Date Time Source
LESO TAF 2021/09/16 12:27 UTC NOAA

TAF LESO 161100Z 1612/1712 30009KT 9999 FEW020 BKN040 TX22/1614Z TN15/1706Z PROB30
TEMPO 1703/1707 3000 BR

Example: see airport list